createdAt,value
2022-10-17T00:01:45.111Z,23.75
2022-10-17T00:04:27.325Z,23.77
2022-10-17T00:07:16.072Z,23.76
2022-10-17T00:09:58.489Z,23.76
2022-10-17T00:12:48.060Z,23.73
2022-10-17T00:15:37.056Z,23.74
2022-10-17T00:18:19.361Z,23.67
2022-10-17T00:21:08.032Z,23.64
2022-10-17T00:23:50.571Z,23.63
2022-10-17T00:26:46.166Z,23.67
2022-10-17T00:29:34.339Z,23.65
2022-10-17T00:32:17.127Z,23.59
2022-10-17T00:35:06.582Z,23.62
2022-10-17T00:37:49.064Z,23.58
2022-10-17T00:40:37.323Z,23.48
2022-10-17T00:43:26.056Z,23.45
2022-10-17T00:46:15.349Z,23.51
2022-10-17T00:49:01.057Z,23.49
2022-10-17T00:52:04.369Z,23.59
2022-10-17T00:54:52.059Z,23.55
2022-10-17T00:57:41.352Z,23.62
2022-10-17T01:00:25.048Z,23.50
2022-10-17T01:03:15.497Z,23.52
2022-10-17T01:05:58.064Z,23.52
2022-10-17T01:08:47.099Z,23.47
2022-10-17T01:12:13.075Z,23.53
2022-10-17T01:15:25.319Z,23.57
2022-10-17T01:18:22.049Z,23.59
2022-10-17T01:21:13.344Z,23.67
2022-10-17T01:24:34.062Z,23.66
2022-10-17T01:27:41.333Z,23.62
2022-10-17T01:31:01.054Z,23.67
2022-10-17T01:34:02.108Z,23.63
2022-10-17T01:37:26.313Z,23.67
2022-10-17T01:40:23.046Z,23.78
2022-10-17T01:43:47.055Z,23.72
2022-10-17T01:46:45.463Z,23.80
2022-10-17T01:49:33.063Z,23.84
2022-10-17T01:52:24.968Z,23.87
2022-10-17T01:55:24.045Z,23.94
2022-10-17T01:58:11.803Z,24.02
2022-10-17T02:01:03.097Z,24.15
2022-10-17T02:03:54.050Z,24.23
2022-10-17T02:06:36.353Z,24.32
2022-10-17T02:09:34.118Z,24.38
2022-10-17T02:12:34.370Z,24.50
2022-10-17T02:15:47.056Z,24.76
2022-10-17T02:18:49.486Z,24.76
2022-10-17T02:21:41.061Z,24.83
2022-10-17T02:24:47.347Z,24.76
2022-10-17T02:28:02.048Z,24.90
2022-10-17T02:31:02.050Z,25.05
2022-10-17T02:34:02.052Z,25.01
2022-10-17T02:36:57.058Z,25.20
2022-10-17T02:39:41.334Z,25.32
2022-10-17T02:42:33.400Z,25.33
2022-10-17T02:45:17.480Z,25.48
2022-10-17T02:48:17.055Z,25.55
2022-10-17T02:51:24.035Z,25.69
2022-10-17T02:54:18.048Z,25.71
2022-10-17T02:57:10.323Z,25.78
2022-10-17T03:00:00.111Z,25.95
2022-10-17T03:02:55.351Z,26.07
2022-10-17T03:05:44.028Z,26.29
2022-10-17T03:08:27.380Z,26.24
2022-10-17T03:11:10.122Z,26.48
2022-10-17T03:13:59.330Z,26.56
2022-10-17T03:16:42.113Z,26.67
2022-10-17T03:19:32.326Z,26.90
2022-10-17T03:22:15.051Z,26.82
2022-10-17T03:25:04.031Z,27.11
2022-10-17T03:27:46.514Z,27.11
2022-10-17T03:30:35.051Z,27.25
2022-10-17T03:33:24.028Z,27.51
2022-10-17T03:36:24.319Z,27.53
2022-10-17T03:39:07.025Z,27.71
2022-10-17T03:41:50.885Z,27.85
2022-10-17T03:44:40.034Z,27.84
2022-10-17T03:47:29.590Z,28.10
2022-10-17T03:50:13.557Z,28.34
2022-10-17T03:53:03.016Z,28.72
2022-10-17T03:55:52.043Z,29.00
2022-10-17T03:58:34.291Z,29.15
2022-10-17T04:01:25.158Z,29.20
2022-10-17T04:04:08.219Z,29.50
2022-10-17T04:07:00.052Z,29.71
2022-10-17T04:09:45.994Z,29.93
2022-10-17T04:12:37.057Z,30.28
2022-10-17T04:15:20.253Z,30.59
2022-10-17T04:18:09.101Z,30.76
2022-10-17T04:20:57.810Z,31.14
2022-10-17T04:23:41.034Z,31.39
2022-10-17T04:26:38.253Z,31.76
2022-10-17T04:29:28.090Z,32.03
2022-10-17T04:32:19.416Z,32.07
2022-10-17T04:35:16.038Z,32.11
2022-10-17T04:38:15.021Z,32.64
2022-10-17T04:41:05.097Z,32.80
2022-10-17T04:43:54.324Z,33.00
2022-10-17T04:46:38.047Z,33.16
2022-10-17T04:49:27.041Z,33.29
2022-10-17T04:52:17.482Z,33.38
2022-10-17T04:55:07.044Z,33.61
2022-10-17T04:57:49.321Z,33.50
2022-10-17T05:00:39.171Z,33.65
2022-10-17T05:03:28.312Z,33.60
2022-10-17T05:06:30.068Z,33.64
2022-10-17T05:09:32.450Z,34.11
2022-10-17T05:12:21.034Z,33.82
2022-10-17T05:15:03.462Z,33.93
2022-10-17T05:17:52.050Z,33.46
2022-10-17T05:20:37.528Z,33.65
2022-10-17T05:23:26.033Z,33.85
2022-10-17T05:26:08.326Z,34.32
2022-10-17T05:28:57.094Z,33.98
2022-10-17T05:31:41.491Z,34.00
2022-10-17T05:34:30.028Z,34.21
2022-10-17T05:37:12.470Z,33.97
2022-10-17T05:40:05.032Z,33.92
2022-10-17T05:42:54.519Z,34.57
2022-10-17T05:45:45.041Z,34.39
2022-10-17T05:48:30.447Z,34.26
2022-10-17T05:51:20.614Z,34.59
2022-10-17T05:54:04.480Z,34.15
2022-10-17T05:56:53.045Z,34.15
2022-10-17T05:59:39.400Z,34.59
2022-10-17T06:02:32.384Z,34.04
2022-10-17T06:05:16.749Z,34.33
2022-10-17T06:08:06.019Z,34.19
2022-10-17T06:10:55.047Z,33.99
2022-10-17T06:13:43.298Z,33.70
2022-10-17T06:16:32.032Z,34.05
2022-10-17T06:19:15.277Z,33.61
2022-10-17T06:22:04.030Z,33.97
2022-10-17T06:24:54.188Z,33.82
2022-10-17T06:27:49.076Z,34.06
2022-10-17T06:30:31.239Z,34.30
2022-10-17T06:33:20.113Z,34.22
2022-10-17T06:36:02.723Z,33.98
2022-10-17T06:38:52.028Z,34.03
2022-10-17T06:41:45.600Z,33.57
2022-10-17T06:44:38.037Z,34.09
2022-10-17T06:47:40.245Z,33.96
2022-10-17T06:50:52.051Z,33.48
2022-10-17T06:53:43.385Z,34.09
2022-10-17T06:56:40.046Z,34.12
2022-10-17T06:59:35.412Z,34.23
2022-10-17T07:02:28.189Z,33.93
2022-10-17T07:05:12.017Z,34.32
2022-10-17T07:08:01.400Z,34.35
2022-10-17T07:10:53.292Z,34.01
2022-10-17T07:13:39.138Z,34.23
2022-10-17T07:16:22.337Z,34.22
2022-10-17T07:19:19.038Z,34.24
2022-10-17T07:22:08.981Z,34.23
2022-10-17T07:25:02.086Z,33.80
2022-10-17T07:28:07.926Z,34.06
2022-10-17T07:30:58.093Z,34.11
2022-10-17T07:33:40.441Z,33.99
2022-10-17T07:36:31.086Z,34.00
2022-10-17T07:39:15.331Z,33.64
2022-10-17T07:42:06.105Z,33.91
2022-10-17T07:44:48.601Z,34.03
2022-10-17T07:47:39.051Z,33.92
2022-10-17T07:50:31.239Z,33.92
2022-10-17T07:53:13.446Z,33.94
2022-10-17T07:56:02.094Z,33.90
2022-10-17T07:58:51.377Z,34.10
2022-10-17T08:01:34.109Z,34.07
2022-10-17T08:04:23.477Z,33.96
2022-10-17T08:07:18.571Z,33.97
2022-10-17T08:10:15.349Z,33.97
2022-10-17T08:13:05.830Z,33.89
2022-10-17T08:15:48.028Z,33.89
2022-10-17T08:18:37.457Z,33.93
2022-10-17T08:21:21.050Z,33.88
2022-10-17T08:24:11.013Z,33.81
2022-10-17T08:26:54.468Z,34.02
2022-10-17T08:29:43.042Z,34.17
2022-10-17T08:32:33.255Z,33.98
2022-10-17T08:35:23.214Z,33.60
2022-10-17T08:38:11.027Z,33.91
2022-10-17T08:41:05.488Z,33.74
2022-10-17T08:44:03.033Z,33.68
2022-10-17T08:46:49.655Z,33.82
2022-10-17T08:50:28.028Z,33.89
2022-10-17T08:53:44.039Z,33.77
2022-10-17T08:56:49.542Z,33.60
2022-10-17T08:59:39.086Z,33.76
2022-10-17T09:02:41.549Z,33.80
2022-10-17T09:05:52.102Z,33.81
2022-10-17T09:08:42.483Z,33.51
2022-10-17T09:12:12.038Z,33.68
2022-10-17T09:15:38.944Z,33.79
2022-10-17T09:18:51.048Z,33.89
2022-10-17T09:21:45.112Z,33.70
2022-10-17T09:24:46.500Z,33.74
2022-10-17T09:27:45.016Z,33.66
2022-10-17T09:30:44.663Z,33.68
2022-10-17T09:33:53.256Z,33.32
2022-10-17T09:36:44.083Z,33.58
2022-10-17T09:39:41.039Z,33.45
2022-10-17T09:42:34.075Z,33.48
2022-10-17T09:45:27.945Z,33.55
2022-10-17T09:48:47.789Z,33.44
2022-10-17T09:51:40.047Z,33.31
2022-10-17T09:54:27.271Z,33.44
2022-10-17T09:57:22.031Z,33.37
2022-10-17T10:03:29.032Z,33.15
2022-10-17T10:06:27.044Z,33.19
2022-10-17T10:09:09.897Z,33.08
2022-10-17T10:12:07.027Z,33.14
2022-10-17T10:14:56.031Z,33.16
2022-10-17T10:17:50.038Z,32.86
2022-10-17T10:20:47.818Z,32.93
2022-10-17T10:23:40.637Z,33.02
2022-10-17T10:26:31.405Z,32.89
2022-10-17T10:29:45.029Z,32.89
2022-10-17T10:32:37.026Z,32.88
2022-10-17T10:36:00.009Z,32.88
2022-10-17T10:38:44.383Z,32.70
2022-10-17T10:41:35.014Z,32.61
2022-10-17T10:44:23.311Z,32.38
2022-10-17T10:47:34.086Z,32.49
2022-10-17T10:50:17.344Z,32.44
2022-10-17T10:53:39.036Z,32.42
2022-10-17T10:56:32.329Z,32.19
2022-10-17T10:59:38.095Z,32.05
2022-10-17T11:02:44.445Z,32.18
2022-10-17T11:05:39.161Z,32.27
2022-10-17T11:08:42.438Z,32.27
2022-10-17T11:11:41.040Z,32.06
2022-10-17T11:14:36.015Z,31.87
2022-10-17T11:17:53.823Z,31.75
2022-10-17T11:21:01.084Z,31.56
2022-10-17T11:23:59.350Z,31.67
2022-10-17T11:26:47.035Z,31.54
2022-10-17T11:29:44.305Z,31.52
2022-10-17T11:32:39.027Z,31.45
2022-10-17T11:35:39.067Z,31.30
2022-10-17T11:38:27.018Z,31.13
2022-10-17T11:41:21.331Z,31.04
2022-10-17T11:44:11.022Z,30.84
2022-10-17T11:47:29.995Z,30.73
2022-10-17T11:53:55.010Z,30.45
2022-10-17T11:56:56.355Z,30.49
2022-10-17T12:00:05.418Z,30.40
2022-10-17T12:03:12.099Z,30.27
2022-10-17T12:06:03.362Z,30.21
2022-10-17T12:09:19.041Z,30.15
2022-10-17T12:12:12.031Z,30.05
2022-10-17T12:14:55.140Z,29.88
2022-10-17T12:17:50.030Z,29.88
2022-10-17T12:20:44.007Z,29.82
2022-10-17T12:23:34.478Z,29.73
2022-10-17T12:26:36.009Z,29.65
2022-10-17T12:29:43.025Z,29.57
2022-10-17T12:32:30.192Z,29.44
2022-10-17T12:35:36.039Z,29.30
2022-10-17T12:38:33.058Z,29.21
2022-10-17T12:41:15.320Z,29.05
2022-10-17T12:44:04.042Z,28.97
2022-10-17T12:47:18.049Z,28.91
2022-10-17T12:50:00.217Z,28.82
2022-10-17T12:52:49.084Z,28.70
2022-10-17T12:55:37.365Z,28.64
2022-10-17T12:58:24.995Z,28.67
2022-10-17T13:01:23.715Z,28.63
2022-10-17T13:04:14.015Z,28.46
2022-10-17T13:07:06.047Z,28.43
2022-10-17T13:09:52.323Z,28.35
2022-10-17T13:12:45.311Z,28.31
2022-10-17T13:15:29.310Z,28.25
2022-10-17T13:18:33.009Z,28.21
2022-10-17T13:21:30.017Z,28.06
2022-10-17T13:28:28.089Z,27.83
2022-10-17T13:31:45.330Z,27.83
2022-10-17T13:34:30.311Z,27.75
2022-10-17T13:37:24.020Z,27.75
2022-10-17T13:40:30.712Z,27.66
2022-10-17T13:43:24.024Z,27.66
2022-10-17T13:46:35.985Z,27.62
2022-10-17T13:49:45.044Z,27.59
2022-10-17T13:52:31.634Z,27.59
2022-10-17T13:55:28.109Z,27.53
2022-10-17T13:58:26.380Z,27.51
2022-10-17T14:01:17.095Z,27.49
2022-10-17T14:04:09.365Z,27.40
2022-10-17T14:07:01.052Z,27.37
2022-10-17T14:09:43.371Z,27.40
2022-10-17T14:12:36.035Z,27.39
2022-10-17T14:15:50.090Z,27.39
2022-10-17T14:18:44.045Z,27.41
2022-10-17T14:21:43.749Z,27.43
2022-10-17T14:24:37.047Z,27.43
2022-10-17T14:27:43.487Z,27.42
2022-10-17T14:30:55.231Z,27.44
2022-10-17T14:33:42.559Z,27.43
2022-10-17T14:36:52.048Z,27.44
2022-10-17T14:39:43.429Z,27.31
2022-10-17T14:42:32.300Z,27.40
2022-10-17T14:45:23.465Z,27.38
2022-10-17T14:48:22.281Z,27.33
2022-10-17T14:51:25.034Z,27.36
2022-10-17T14:54:34.026Z,27.36
2022-10-17T14:57:36.484Z,27.30
2022-10-17T15:00:27.038Z,27.24
2022-10-17T15:03:09.450Z,27.19
2022-10-17T15:06:00.100Z,27.18
2022-10-17T15:11:32.099Z,27.01
2022-10-17T15:14:14.465Z,27.01
2022-10-17T15:17:03.089Z,26.97
2022-10-17T15:19:45.332Z,26.84
2022-10-17T15:22:39.040Z,26.79
2022-10-17T15:25:44.417Z,26.75
2022-10-17T15:28:40.965Z,26.76
2022-10-17T15:31:32.008Z,26.66
2022-10-17T15:34:14.291Z,26.64
2022-10-17T15:37:03.034Z,26.59
2022-10-17T15:40:04.342Z,26.54
2022-10-17T15:43:12.865Z,26.50
2022-10-17T15:45:57.514Z,26.55
2022-10-17T15:48:46.030Z,26.57
2022-10-17T15:51:29.313Z,26.51
2022-10-17T15:54:18.000Z,26.50
2022-10-17T15:57:10.142Z,26.27
2022-10-17T16:00:00.034Z,26.37
2022-10-17T16:02:44.463Z,26.38
2022-10-17T16:05:35.019Z,26.31
2022-10-17T16:08:17.298Z,26.27
2022-10-17T16:11:06.018Z,26.20
2022-10-17T16:13:48.430Z,26.16
2022-10-17T16:16:38.024Z,26.15
2022-10-17T16:19:20.427Z,26.13
2022-10-17T16:22:12.019Z,26.12
2022-10-17T16:24:59.847Z,26.16
2022-10-17T16:27:49.011Z,26.12
2022-10-17T16:30:43.428Z,26.07
2022-10-17T16:33:24.999Z,26.04
2022-10-17T16:36:15.071Z,25.91
2022-10-17T16:38:58.582Z,25.78
2022-10-17T16:41:48.031Z,25.80
2022-10-17T16:44:36.992Z,25.83
2022-10-17T16:47:20.157Z,25.73
2022-10-17T16:50:09.007Z,25.55
2022-10-17T16:52:57.992Z,25.68
2022-10-17T16:55:47.053Z,25.68
2022-10-17T16:58:37.415Z,25.73
2022-10-17T17:01:32.383Z,25.64
2022-10-17T17:04:14.471Z,25.72
2022-10-17T17:07:03.016Z,25.69
2022-10-17T17:09:52.696Z,25.71
2022-10-17T17:12:36.059Z,25.63
2022-10-17T17:15:24.360Z,25.62
2022-10-17T17:18:07.472Z,25.57
2022-10-17T17:20:57.378Z,25.57
2022-10-17T17:23:43.011Z,25.50
2022-10-17T17:26:38.998Z,25.58
2022-10-17T17:29:31.073Z,25.64
2022-10-17T17:32:14.636Z,25.53
2022-10-17T17:35:04.017Z,25.47
2022-10-17T17:37:46.490Z,25.43
2022-10-17T17:40:35.046Z,25.49
2022-10-17T17:43:17.569Z,25.47
2022-10-17T17:46:10.052Z,25.46
2022-10-17T17:49:01.002Z,25.42
2022-10-17T17:51:54.033Z,25.43
2022-10-17T17:54:40.013Z,25.35
2022-10-17T17:57:30.005Z,25.30
2022-10-17T18:00:14.453Z,25.29
2022-10-17T18:03:03.986Z,25.34
2022-10-17T18:05:55.039Z,25.21
2022-10-17T18:08:45.509Z,25.21
2022-10-17T18:11:27.994Z,25.24
2022-10-17T18:14:24.801Z,25.24
2022-10-17T18:17:07.038Z,25.16
2022-10-17T18:19:56.007Z,25.12
2022-10-17T18:22:45.677Z,25.09
2022-10-17T18:25:35.219Z,25.12
2022-10-17T18:28:24.129Z,25.06
2022-10-17T18:31:20.503Z,25.01
2022-10-17T18:34:10.022Z,25.01
2022-10-17T18:36:53.926Z,25.01
2022-10-17T18:39:43.022Z,24.93
2022-10-17T18:42:25.721Z,24.96
2022-10-17T18:45:15.004Z,24.88
2022-10-17T18:47:57.382Z,24.91
2022-10-17T18:50:45.993Z,24.90
2022-10-17T18:53:35.999Z,24.89
2022-10-17T18:56:26.002Z,24.94
2022-10-17T18:59:08.499Z,24.83
2022-10-17T19:01:57.056Z,24.75
2022-10-17T19:04:46.048Z,24.76
2022-10-17T19:07:34.989Z,24.79
2022-10-17T19:10:26.749Z,24.70
2022-10-17T19:13:09.999Z,24.65
2022-10-17T19:15:59.412Z,24.70
2022-10-17T19:18:42.015Z,24.71
2022-10-17T19:21:31.427Z,24.64
2022-10-17T19:24:16.008Z,24.63
2022-10-17T19:27:00.496Z,24.64
2022-10-17T19:29:52.001Z,24.55
2022-10-17T19:32:34.557Z,24.53
2022-10-17T19:35:23.981Z,24.41
2022-10-17T19:38:18.994Z,24.49
2022-10-17T19:41:01.364Z,24.54
2022-10-17T19:43:51.996Z,24.53
2022-10-17T19:46:41.998Z,24.55
2022-10-17T19:49:24.433Z,24.48
2022-10-17T19:52:14.010Z,24.52
2022-10-17T19:54:56.417Z,24.36
2022-10-17T19:57:45.010Z,24.41
2022-10-17T20:00:36.019Z,24.28
2022-10-17T20:03:25.460Z,24.35
2022-10-17T20:06:08.023Z,24.35
2022-10-17T20:08:57.008Z,24.34
2022-10-17T20:11:45.990Z,24.33
2022-10-17T20:14:37.444Z,24.35
2022-10-17T20:17:24.038Z,24.32
2022-10-17T20:20:15.309Z,24.30
2022-10-17T20:22:58.038Z,24.26
2022-10-17T20:25:46.991Z,24.21
2022-10-17T20:28:29.307Z,24.09
2022-10-17T20:31:19.000Z,24.18
2022-10-17T20:34:05.394Z,24.22
2022-10-17T20:36:55.007Z,24.23
2022-10-17T20:39:38.282Z,24.10
2022-10-17T20:42:29.003Z,24.20
2022-10-17T20:45:18.697Z,24.17
2022-10-17T20:48:01.191Z,24.14
2022-10-17T20:50:51.997Z,24.05
2022-10-17T20:53:40.987Z,24.00
2022-10-17T20:56:49.991Z,23.95
2022-10-17T20:59:39.010Z,23.92
2022-10-17T21:02:21.277Z,23.81
2022-10-17T21:05:10.003Z,23.80
2022-10-17T21:07:52.261Z,23.73
2022-10-17T21:10:40.997Z,23.82
2022-10-17T21:13:23.282Z,23.89
2022-10-17T21:16:22.048Z,23.88
2022-10-17T21:19:05.358Z,23.78
2022-10-17T21:21:55.012Z,23.83
2022-10-17T21:24:37.306Z,23.77
2022-10-17T21:27:27.005Z,23.69
2022-10-17T21:30:22.862Z,23.60
2022-10-17T21:33:11.990Z,23.75
2022-10-17T21:35:54.272Z,23.67
2022-10-17T21:38:46.978Z,23.75
2022-10-17T21:41:31.910Z,23.62
2022-10-17T21:44:25.965Z,23.48
2022-10-17T21:47:08.362Z,23.58
2022-10-17T21:49:56.986Z,23.59
2022-10-17T21:52:45.968Z,23.63
2022-10-17T21:55:35.009Z,23.58
2022-10-17T21:58:23.990Z,23.60
2022-10-17T22:01:19.025Z,23.63
2022-10-17T22:04:05.254Z,23.53
2022-10-17T22:06:55.976Z,23.57
2022-10-17T22:09:38.280Z,23.61
2022-10-17T22:12:27.072Z,23.62
2022-10-17T22:15:15.974Z,23.60
2022-10-17T22:17:58.236Z,23.55
2022-10-17T22:20:48.996Z,23.61
2022-10-17T22:23:31.396Z,23.55
2022-10-17T22:26:20.985Z,23.47
2022-10-17T22:29:16.840Z,23.53
2022-10-17T22:32:05.990Z,23.52
2022-10-17T22:34:48.496Z,23.42
2022-10-17T22:37:36.976Z,23.35
2022-10-17T22:40:31.968Z,23.36
2022-10-17T22:43:14.986Z,23.41
2022-10-17T22:46:11.984Z,23.44
2022-10-17T22:48:54.130Z,23.35
2022-10-17T22:51:42.953Z,23.38
2022-10-17T22:54:31.970Z,23.38
2022-10-17T22:57:14.483Z,23.37
2022-10-17T23:00:02.954Z,23.35
2022-10-17T23:02:46.256Z,23.28
2022-10-17T23:05:34.994Z,23.36
2022-10-17T23:08:18.875Z,23.26
2022-10-17T23:11:07.981Z,23.19
2022-10-17T23:13:50.267Z,23.29
2022-10-17T23:16:38.943Z,23.26
2022-10-17T23:19:24.353Z,23.28
2022-10-17T23:22:13.960Z,23.23
2022-10-17T23:24:56.263Z,23.10
2022-10-17T23:27:44.967Z,23.21
2022-10-17T23:30:27.242Z,23.22
2022-10-17T23:33:17.962Z,23.13
2022-10-17T23:36:00.234Z,23.13
2022-10-17T23:38:51.730Z,23.07
2022-10-17T23:41:36.286Z,23.08
2022-10-17T23:44:24.989Z,23.12
2022-10-17T23:47:07.225Z,23.12
2022-10-17T23:49:56.296Z,23.08
2022-10-17T23:52:39.234Z,23.04
2022-10-17T23:55:27.963Z,23.02
2022-10-17T23:58:13.481Z,23.01
